sensor_id;sensor_type;location;lat;lon;timestamp;temperature;humidity
21744;DHT22;11034;48.556;9.342;2023-10-31T05:08:06;8.70;99.90
21744;DHT22;11034;48.556;9.342;2023-10-31T05:20:50;8.60;99.90
21744;DHT22;11034;48.556;9.342;2023-10-31T05:23:25;8.60;99.90
21744;DHT22;11034;48.556;9.342;2023-10-31T05:25:57;8.60;99.90
21744;DHT22;11034;48.556;9.342;2023-10-31T05:28:27;8.50;99.90
21744;DHT22;11034;48.556;9.342;2023-10-31T05:30:57;8.50;99.90
21744;DHT22;11034;48.556;9.342;2023-10-31T05:33:29;8.50;99.90
21744;DHT22;11034;48.556;9.342;2023-10-31T05:36:00;8.50;99.90
21744;DHT22;11034;48.556;9.342;2023-10-31T05:38:32;8.50;99.90
21744;DHT22;11034;48.556;9.342;2023-10-31T05:41:10;8.50;99.90
21744;DHT22;11034;48.556;9.342;2023-10-31T05:43:47;8.40;99.90
21744;DHT22;11034;48.556;9.342;2023-10-31T05:46:20;8.50;99.90
21744;DHT22;11034;48.556;9.342;2023-10-31T05:48:55;8.50;99.90
21744;DHT22;11034;48.556;9.342;2023-10-31T05:51:29;8.50;99.90
21744;DHT22;11034;48.556;9.342;2023-10-31T05:54:09;8.50;99.90
21744;DHT22;11034;48.556;9.342;2023-10-31T05:56:55;8.50;99.90
21744;DHT22;11034;48.556;9.342;2023-10-31T05:59:27;8.50;99.90
21744;DHT22;11034;48.556;9.342;2023-10-31T06:02:12;8.50;99.90
21744;DHT22;11034;48.556;9.342;2023-10-31T06:04:46;8.50;99.90
21744;DHT22;11034;48.556;9.342;2023-10-31T06:07:15;8.50;99.90
21744;DHT22;11034;48.556;9.342;2023-10-31T06:09:46;8.50;99.90
21744;DHT22;11034;48.556;9.342;2023-10-31T06:12:15;8.50;99.90
21744;DHT22;11034;48.556;9.342;2023-10-31T06:14:43;8.50;99.90
21744;DHT22;11034;48.556;9.342;2023-10-31T06:17:13;8.50;99.90
21744;DHT22;11034;48.556;9.342;2023-10-31T06:19:42;8.50;99.90
21744;DHT22;11034;48.556;9.342;2023-10-31T06:22:12;8.40;99.90
21744;DHT22;11034;48.556;9.342;2023-10-31T06:24:41;8.50;99.90
21744;DHT22;11034;48.556;9.342;2023-10-31T06:27:09;8.50;99.90
21744;DHT22;11034;48.556;9.342;2023-10-31T06:29:37;8.50;99.90
21744;DHT22;11034;48.556;9.342;2023-10-31T06:32:28;8.50;99.90
21744;DHT22;11034;48.556;9.342;2023-10-31T06:34:56;8.50;99.90
21744;DHT22;11034;48.556;9.342;2023-10-31T06:37:24;8.40;99.90
21744;DHT22;11034;48.556;9.342;2023-10-31T06:39:52;8.40;99.90
21744;DHT22;11034;48.556;9.342;2023-10-31T06:42:22;8.40;99.90
21744;DHT22;11034;48.556;9.342;2023-10-31T06:44:50;8.40;99.90
21744;DHT22;11034;48.556;9.342;2023-10-31T06:47:19;8.50;99.90
21744;DHT22;11034;48.556;9.342;2023-10-31T06:49:48;8.50;99.90
21744;DHT22;11034;48.556;9.342;2023-10-31T06:52:17;8.60;99.90
21744;DHT22;11034;48.556;9.342;2023-10-31T06:54:45;8.70;99.90
21744;DHT22;11034;48.556;9.342;2023-10-31T06:57:14;8.70;99.90
21744;DHT22;11034;48.556;9.342;2023-10-31T06:59:43;8.70;99.90
21744;DHT22;11034;48.556;9.342;2023-10-31T07:02:11;8.80;99.90
21744;DHT22;11034;48.556;9.342;2023-10-31T07:04:41;8.80;99.90
21744;DHT22;11034;48.556;9.342;2023-10-31T07:07:11;8.80;99.90
21744;DHT22;11034;48.556;9.342;2023-10-31T07:09:39;8.80;99.90
21744;DHT22;11034;48.556;9.342;2023-10-31T07:12:08;8.90;99.90
21744;DHT22;11034;48.556;9.342;2023-10-31T07:14:38;8.90;99.90
21744;DHT22;11034;48.556;9.342;2023-10-31T07:17:06;8.90;99.90
21744;DHT22;11034;48.556;9.342;2023-10-31T07:19:36;9.00;99.90
21744;DHT22;11034;48.556;9.342;2023-10-31T07:22:04;9.10;99.90
21744;DHT22;11034;48.556;9.342;2023-10-31T07:24:34;9.00;99.90
21744;DHT22;11034;48.556;9.342;2023-10-31T07:27:04;9.10;99.90
21744;DHT22;11034;48.556;9.342;2023-10-31T07:29:33;9.10;99.90
21744;DHT22;11034;48.556;9.342;2023-10-31T07:32:01;9.10;99.90
21744;DHT22;11034;48.556;9.342;2023-10-31T07:34:30;9.20;99.90
21744;DHT22;11034;48.556;9.342;2023-10-31T07:37:01;9.20;99.90
21744;DHT22;11034;48.556;9.342;2023-10-31T07:39:31;9.20;99.90
21744;DHT22;11034;48.556;9.342;2023-10-31T07:42:21;9.20;99.90
21744;DHT22;11034;48.556;9.342;2023-10-31T07:45:50;9.30;99.90
21744;DHT22;11034;48.556;9.342;2023-10-31T07:48:53;9.40;99.90
21744;DHT22;11034;48.556;9.342;2023-10-31T07:51:51;9.50;99.90
21744;DHT22;11034;48.556;9.342;2023-10-31T07:54:57;9.50;99.90
21744;DHT22;11034;48.556;9.342;2023-10-31T07:57:49;9.50;99.90
21744;DHT22;11034;48.556;9.342;2023-10-31T08:00:45;9.60;99.90
21744;DHT22;11034;48.556;9.342;2023-10-31T08:03:35;9.60;99.90
21744;DHT22;11034;48.556;9.342;2023-10-31T08:07:03;9.60;99.90
21744;DHT22;11034;48.556;9.342;2023-10-31T08:09:56;9.70;99.90
21744;DHT22;11034;48.556;9.342;2023-10-31T08:12:25;9.80;99.90
21744;DHT22;11034;48.556;9.342;2023-10-31T08:14:56;9.80;99.90
21744;DHT22;11034;48.556;9.342;2023-10-31T08:17:25;9.90;99.90
21744;DHT22;11034;48.556;9.342;2023-10-31T08:19:53;9.90;99.90
21744;DHT22;11034;48.556;9.342;2023-10-31T08:22:22;9.90;99.90
21744;DHT22;11034;48.556;9.342;2023-10-31T08:24:50;9.90;99.90
21744;DHT22;11034;48.556;9.342;2023-10-31T08:27:18;10.00;99.90
21744;DHT22;11034;48.556;9.342;2023-10-31T08:29:47;10.00;99.90
21744;DHT22;11034;48.556;9.342;2023-10-31T08:32:16;10.10;99.90
21744;DHT22;11034;48.556;9.342;2023-10-31T08:34:45;10.20;99.90
21744;DHT22;11034;48.556;9.342;2023-10-31T08:37:13;10.20;99.90
21744;DHT22;11034;48.556;9.342;2023-10-31T08:39:42;10.30;99.90
21744;DHT22;11034;48.556;9.342;2023-10-31T08:42:11;10.30;99.90
21744;DHT22;11034;48.556;9.342;2023-10-31T08:44:40;10.30;99.90
21744;DHT22;11034;48.556;9.342;2023-10-31T08:47:11;10.30;99.90
21744;DHT22;11034;48.556;9.342;2023-10-31T08:49:41;10.30;99.90
21744;DHT22;11034;48.556;9.342;2023-10-31T08:52:11;10.30;99.90
21744;DHT22;11034;48.556;9.342;2023-10-31T08:54:40;10.40;99.90
21744;DHT22;11034;48.556;9.342;2023-10-31T08:57:08;10.50;99.90
21744;DHT22;11034;48.556;9.342;2023-10-31T08:59:38;10.50;99.90
21744;DHT22;11034;48.556;9.342;2023-10-31T09:02:08;10.60;99.90
21744;DHT22;11034;48.556;9.342;2023-10-31T09:04:37;10.60;99.90
21744;DHT22;11034;48.556;9.342;2023-10-31T09:07:07;10.60;99.90
21744;DHT22;11034;48.556;9.342;2023-10-31T09:09:38;10.70;99.90
21744;DHT22;11034;48.556;9.342;2023-10-31T09:12:07;10.70;99.90
21744;DHT22;11034;48.556;9.342;2023-10-31T09:14:35;10.90;99.90
21744;DHT22;11034;48.556;9.342;2023-10-31T09:17:04;10.90;99.90
21744;DHT22;11034;48.556;9.342;2023-10-31T09:19:32;10.90;99.90
21744;DHT22;11034;48.556;9.342;2023-10-31T09:22:00;11.00;99.90
21744;DHT22;11034;48.556;9.342;2023-10-31T09:24:30;11.00;99.90
21744;DHT22;11034;48.556;9.342;2023-10-31T09:26:58;11.00;99.90
21744;DHT22;11034;48.556;9.342;2023-10-31T09:29:26;11.20;99.90
21744;DHT22;11034;48.556;9.342;2023-10-31T09:31:56;11.20;99.90
21744;DHT22;11034;48.556;9.342;2023-10-31T09:34:25;11.20;99.90
21744;DHT22;11034;48.556;9.342;2023-10-31T09:36:53;11.40;99.90
21744;DHT22;11034;48.556;9.342;2023-10-31T09:39:25;11.40;99.90
21744;DHT22;11034;48.556;9.342;2023-10-31T09:41:56;11.40;99.90
21744;DHT22;11034;48.556;9.342;2023-10-31T09:44:25;11.50;99.90
21744;DHT22;11034;48.556;9.342;2023-10-31T09:46:55;11.80;99.90
21744;DHT22;11034;48.556;9.342;2023-10-31T09:49:25;11.80;99.90
21744;DHT22;11034;48.556;9.342;2023-10-31T09:51:54;11.90;99.90
21744;DHT22;11034;48.556;9.342;2023-10-31T09:54:25;12.10;99.90
21744;DHT22;11034;48.556;9.342;2023-10-31T09:56:58;12.00;99.90
21744;DHT22;11034;48.556;9.342;2023-10-31T09:59:28;12.10;99.90
21744;DHT22;11034;48.556;9.342;2023-10-31T10:01:59;12.00;99.90
21744;DHT22;11034;48.556;9.342;2023-10-31T10:04:29;12.00;99.90
21744;DHT22;11034;48.556;9.342;2023-10-31T10:07:01;12.00;99.90
21744;DHT22;11034;48.556;9.342;2023-10-31T10:09:30;12.10;99.90
21744;DHT22;11034;48.556;9.342;2023-10-31T10:12:01;12.10;99.90
21744;DHT22;11034;48.556;9.342;2023-10-31T10:14:29;12.10;99.90
21744;DHT22;11034;48.556;9.342;2023-10-31T10:16:59;12.20;99.90
21744;DHT22;11034;48.556;9.342;2023-10-31T10:19:27;12.30;99.90
21744;DHT22;11034;48.556;9.342;2023-10-31T10:21:57;12.50;99.90
21744;DHT22;11034;48.556;9.342;2023-10-31T10:24:29;12.50;99.90
21744;DHT22;11034;48.556;9.342;2023-10-31T10:26:57;12.40;99.90
21744;DHT22;11034;48.556;9.342;2023-10-31T10:29:29;12.40;99.90
21744;DHT22;11034;48.556;9.342;2023-10-31T10:31:58;12.30;99.90
21744;DHT22;11034;48.556;9.342;2023-10-31T10:34:26;12.00;99.90
21744;DHT22;11034;48.556;9.342;2023-10-31T10:36:57;11.80;99.90
21744;DHT22;11034;48.556;9.342;2023-10-31T10:39:26;11.70;99.90
21744;DHT22;11034;48.556;9.342;2023-10-31T10:42:00;11.60;99.90
21744;DHT22;11034;48.556;9.342;2023-10-31T10:44:33;11.50;99.90
21744;DHT22;11034;48.556;9.342;2023-10-31T10:47:03;11.50;99.90
21744;DHT22;11034;48.556;9.342;2023-10-31T10:49:33;11.40;99.90
21744;DHT22;11034;48.556;9.342;2023-10-31T10:52:15;11.30;99.90
21744;DHT22;11034;48.556;9.342;2023-10-31T10:54:48;11.40;99.90
21744;DHT22;11034;48.556;9.342;2023-10-31T10:57:27;11.50;99.90
21744;DHT22;11034;48.556;9.342;2023-10-31T11:00:03;11.50;99.90
21744;DHT22;11034;48.556;9.342;2023-10-31T11:02:33;11.50;99.90
21744;DHT22;11034;48.556;9.342;2023-10-31T11:05:05;11.40;99.90
21744;DHT22;11034;48.556;9.342;2023-10-31T11:07:34;11.50;99.90
21744;DHT22;11034;48.556;9.342;2023-10-31T11:10:06;11.50;99.90
21744;DHT22;11034;48.556;9.342;2023-10-31T11:12:36;11.50;99.90
21744;DHT22;11034;48.556;9.342;2023-10-31T11:15:11;11.70;99.90
21744;DHT22;11034;48.556;9.342;2023-10-31T11:17:41;11.90;99.90
21744;DHT22;11034;48.556;9.342;2023-10-31T11:20:12;11.80;99.90
21744;DHT22;11034;48.556;9.342;2023-10-31T11:22:42;12.00;99.90
21744;DHT22;11034;48.556;9.342;2023-10-31T11:25:14;12.00;99.90
21744;DHT22;11034;48.556;9.342;2023-10-31T11:28:10;11.90;99.90
21744;DHT22;11034;48.556;9.342;2023-10-31T11:30:40;11.90;99.90
21744;DHT22;11034;48.556;9.342;2023-10-31T11:33:14;12.00;99.90
21744;DHT22;11034;48.556;9.342;2023-10-31T11:35:42;12.10;99.90
21744;DHT22;11034;48.556;9.342;2023-10-31T11:38:12;12.30;99.90
21744;DHT22;11034;48.556;9.342;2023-10-31T11:40:59;12.40;99.90
21744;DHT22;11034;48.556;9.342;2023-10-31T11:43:50;12.40;99.90
21744;DHT22;11034;48.556;9.342;2023-10-31T11:46:22;12.20;99.90
21744;DHT22;11034;48.556;9.342;2023-10-31T11:48:53;12.30;99.90
21744;DHT22;11034;48.556;9.342;2023-10-31T11:51:23;12.50;99.90
21744;DHT22;11034;48.556;9.342;2023-10-31T11:53:52;12.70;99.90
21744;DHT22;11034;48.556;9.342;2023-10-31T11:56:21;12.70;99.90
21744;DHT22;11034;48.556;9.342;2023-10-31T11:58:57;12.70;99.90
21744;DHT22;11034;48.556;9.342;2023-10-31T12:01:27;12.60;99.90
21744;DHT22;11034;48.556;9.342;2023-10-31T12:03:56;12.40;99.90
21744;DHT22;11034;48.556;9.342;2023-10-31T12:06:25;12.30;99.90
21744;DHT22;11034;48.556;9.342;2023-10-31T12:08:59;12.20;99.90
21744;DHT22;11034;48.556;9.342;2023-10-31T12:11:28;12.20;99.90
21744;DHT22;11034;48.556;9.342;2023-10-31T12:14:01;12.10;99.90
21744;DHT22;11034;48.556;9.342;2023-10-31T12:16:34;12.00;99.90
21744;DHT22;11034;48.556;9.342;2023-10-31T12:19:03;12.00;99.90
21744;DHT22;11034;48.556;9.342;2023-10-31T12:21:36;12.10;99.90
21744;DHT22;11034;48.556;9.342;2023-10-31T12:24:05;12.30;99.90
21744;DHT22;11034;48.556;9.342;2023-10-31T12:26:35;12.40;99.90
21744;DHT22;11034;48.556;9.342;2023-10-31T12:29:10;12.60;99.90
21744;DHT22;11034;48.556;9.342;2023-10-31T12:31:47;12.90;99.90
21744;DHT22;11034;48.556;9.342;2023-10-31T12:34:17;13.10;99.90
21744;DHT22;11034;48.556;9.342;2023-10-31T12:36:47;13.20;99.90
21744;DHT22;11034;48.556;9.342;2023-10-31T12:39:18;13.20;99.90
21744;DHT22;11034;48.556;9.342;2023-10-31T12:41:49;13.10;99.90
21744;DHT22;11034;48.556;9.342;2023-10-31T12:44:23;12.90;99.90
21744;DHT22;11034;48.556;9.342;2023-10-31T12:46:54;12.60;99.90
21744;DHT22;11034;48.556;9.342;2023-10-31T12:49:22;12.40;99.90
21744;DHT22;11034;48.556;9.342;2023-10-31T12:51:55;12.40;99.90
21744;DHT22;11034;48.556;9.342;2023-10-31T12:54:29;12.20;99.90
21744;DHT22;11034;48.556;9.342;2023-10-31T12:56:59;12.10;99.90
21744;DHT22;11034;48.556;9.342;2023-10-31T12:59:28;12.10;99.90
21744;DHT22;11034;48.556;9.342;2023-10-31T13:01:58;12.10;99.90
21744;DHT22;11034;48.556;9.342;2023-10-31T13:04:27;12.20;99.90
21744;DHT22;11034;48.556;9.342;2023-10-31T13:06:57;12.30;99.90
21744;DHT22;11034;48.556;9.342;2023-10-31T13:09:29;12.40;99.90
21744;DHT22;11034;48.556;9.342;2023-10-31T13:12:00;12.50;99.90
21744;DHT22;11034;48.556;9.342;2023-10-31T13:14:28;12.40;99.90
21744;DHT22;11034;48.556;9.342;2023-10-31T13:16:58;12.30;99.90
21744;DHT22;11034;48.556;9.342;2023-10-31T13:19:27;12.30;99.90
21744;DHT22;11034;48.556;9.342;2023-10-31T13:21:55;12.30;99.90
21744;DHT22;11034;48.556;9.342;2023-10-31T13:24:24;12.20;99.90
21744;DHT22;11034;48.556;9.342;2023-10-31T13:26:52;12.10;99.90
21744;DHT22;11034;48.556;9.342;2023-10-31T13:29:20;12.00;99.90
21744;DHT22;11034;48.556;9.342;2023-10-31T13:31:52;11.90;99.90
21744;DHT22;11034;48.556;9.342;2023-10-31T13:34:22;11.90;99.90
21744;DHT22;11034;48.556;9.342;2023-10-31T13:36:51;12.00;99.90
21744;DHT22;11034;48.556;9.342;2023-10-31T13:39:21;12.10;99.90
21744;DHT22;11034;48.556;9.342;2023-10-31T13:41:50;12.20;99.90
21744;DHT22;11034;48.556;9.342;2023-10-31T13:44:19;12.20;99.90
21744;DHT22;11034;48.556;9.342;2023-10-31T13:46:48;12.30;99.90
21744;DHT22;11034;48.556;9.342;2023-10-31T13:49:16;12.30;99.90
21744;DHT22;11034;48.556;9.342;2023-10-31T13:51:46;12.40;99.90
21744;DHT22;11034;48.556;9.342;2023-10-31T13:54:16;12.40;99.90
21744;DHT22;11034;48.556;9.342;2023-10-31T13:56:44;12.50;99.90
21744;DHT22;11034;48.556;9.342;2023-10-31T13:59:12;12.50;99.90
21744;DHT22;11034;48.556;9.342;2023-10-31T14:01:41;12.50;99.90
21744;DHT22;11034;48.556;9.342;2023-10-31T14:04:10;12.50;99.90
21744;DHT22;11034;48.556;9.342;2023-10-31T14:06:40;12.30;99.90
21744;DHT22;11034;48.556;9.342;2023-10-31T14:17:17;11.30;99.90
21744;DHT22;11034;48.556;9.342;2023-10-31T14:19:59;11.10;99.90
21744;DHT22;11034;48.556;9.342;2023-10-31T14:22:28;11.00;99.90
21744;DHT22;11034;48.556;9.342;2023-10-31T14:24:59;10.90;99.90
21744;DHT22;11034;48.556;9.342;2023-10-31T14:27:34;10.90;99.90
21744;DHT22;11034;48.556;9.342;2023-10-31T14:30:03;10.80;99.90
21744;DHT22;11034;48.556;9.342;2023-10-31T14:32:34;10.70;99.90
21744;DHT22;11034;48.556;9.342;2023-10-31T14:35:06;10.70;99.90
21744;DHT22;11034;48.556;9.342;2023-10-31T14:37:35;10.80;99.90
21744;DHT22;11034;48.556;9.342;2023-10-31T14:40:04;10.70;99.90
21744;DHT22;11034;48.556;9.342;2023-10-31T14:42:35;10.70;99.90
21744;DHT22;11034;48.556;9.342;2023-10-31T14:45:04;10.70;99.90
21744;DHT22;11034;48.556;9.342;2023-10-31T14:47:37;10.70;99.90
21744;DHT22;11034;48.556;9.342;2023-10-31T14:50:07;10.60;99.90
21744;DHT22;11034;48.556;9.342;2023-10-31T14:52:35;10.60;99.90
21744;DHT22;11034;48.556;9.342;2023-10-31T14:55:05;10.70;99.90
21744;DHT22;11034;48.556;9.342;2023-10-31T14:57:34;10.70;99.90
21744;DHT22;11034;48.556;9.342;2023-10-31T15:00:06;10.80;99.90
21744;DHT22;11034;48.556;9.342;2023-10-31T15:02:37;10.90;99.90
21744;DHT22;11034;48.556;9.342;2023-10-31T15:05:06;11.00;99.90
21744;DHT22;11034;48.556;9.342;2023-10-31T15:07:36;11.10;99.90
21744;DHT22;11034;48.556;9.342;2023-10-31T15:10:06;11.00;99.90
21744;DHT22;11034;48.556;9.342;2023-10-31T15:12:35;10.90;99.90
21744;DHT22;11034;48.556;9.342;2023-10-31T15:19:00;10.80;99.90
21744;DHT22;11034;48.556;9.342;2023-10-31T15:21:28;10.80;99.90
21744;DHT22;11034;48.556;9.342;2023-10-31T15:23:57;10.70;99.90
21744;DHT22;11034;48.556;9.342;2023-10-31T15:26:26;10.70;99.90
21744;DHT22;11034;48.556;9.342;2023-10-31T15:28:55;10.70;99.90
21744;DHT22;11034;48.556;9.342;2023-10-31T15:31:27;10.70;99.90
21744;DHT22;11034;48.556;9.342;2023-10-31T15:33:56;10.60;99.90
21744;DHT22;11034;48.556;9.342;2023-10-31T15:36:27;10.60;99.90
21744;DHT22;11034;48.556;9.342;2023-10-31T15:38:55;10.60;99.90
21744;DHT22;11034;48.556;9.342;2023-10-31T15:41:24;10.60;99.90
21744;DHT22;11034;48.556;9.342;2023-10-31T15:43:52;10.60;99.90
21744;DHT22;11034;48.556;9.342;2023-10-31T15:46:21;10.50;99.90
21744;DHT22;11034;48.556;9.342;2023-10-31T15:48:49;10.40;99.90
21744;DHT22;11034;48.556;9.342;2023-10-31T15:51:18;10.40;99.90
21744;DHT22;11034;48.556;9.342;2023-10-31T15:53:50;10.50;99.90
21744;DHT22;11034;48.556;9.342;2023-10-31T15:56:18;10.40;99.90
21744;DHT22;11034;48.556;9.342;2023-10-31T15:58:47;10.30;99.90
21744;DHT22;11034;48.556;9.342;2023-10-31T16:01:15;10.20;99.90
21744;DHT22;11034;48.556;9.342;2023-10-31T16:03:46;10.10;99.90
21744;DHT22;11034;48.556;9.342;2023-10-31T16:06:49;10.00;99.90
21744;DHT22;11034;48.556;9.342;2023-10-31T16:10:01;9.90;99.90
21744;DHT22;11034;48.556;9.342;2023-10-31T16:12:48;9.90;99.90
21744;DHT22;11034;48.556;9.342;2023-10-31T16:18:29;9.70;99.90
21744;DHT22;11034;48.556;9.342;2023-10-31T16:21:22;9.70;99.90
21744;DHT22;11034;48.556;9.342;2023-10-31T16:23:54;9.60;99.90
21744;DHT22;11034;48.556;9.342;2023-10-31T16:26:26;9.60;99.90
21744;DHT22;11034;48.556;9.342;2023-10-31T16:28:55;9.60;99.90
21744;DHT22;11034;48.556;9.342;2023-10-31T16:31:25;9.60;99.90
21744;DHT22;11034;48.556;9.342;2023-10-31T16:33:54;9.60;99.90
21744;DHT22;11034;48.556;9.342;2023-10-31T16:36:24;9.50;99.90
21744;DHT22;11034;48.556;9.342;2023-10-31T16:39:00;9.50;99.90
21744;DHT22;11034;48.556;9.342;2023-10-31T16:41:37;9.60;99.90
21744;DHT22;11034;48.556;9.342;2023-10-31T16:44:08;9.60;99.90
21744;DHT22;11034;48.556;9.342;2023-10-31T16:46:44;9.50;99.90
21744;DHT22;11034;48.556;9.342;2023-10-31T16:49:15;9.50;99.90
21744;DHT22;11034;48.556;9.342;2023-10-31T16:51:51;9.50;99.90
21744;DHT22;11034;48.556;9.342;2023-10-31T16:55:31;9.50;99.90
21744;DHT22;11034;48.556;9.342;2023-10-31T17:38:17;9.60;99.90
21744;DHT22;11034;48.556;9.342;2023-10-31T17:45:11;9.70;99.90
21744;DHT22;11034;48.556;9.342;2023-10-31T17:48:21;9.70;99.90
21744;DHT22;11034;48.556;9.342;2023-10-31T17:52:16;9.70;99.90
21744;DHT22;11034;48.556;9.342;2023-10-31T17:55:06;9.60;99.90
21744;DHT22;11034;48.556;9.342;2023-10-31T17:57:36;9.50;99.90
21744;DHT22;11034;48.556;9.342;2023-10-31T18:00:07;9.40;99.90
21744;DHT22;11034;48.556;9.342;2023-10-31T18:02:41;9.40;99.90
21744;DHT22;11034;48.556;9.342;2023-10-31T18:05:41;9.30;99.90
21744;DHT22;11034;48.556;9.342;2023-10-31T18:08:15;9.30;99.90
21744;DHT22;11034;48.556;9.342;2023-10-31T18:11:03;9.20;99.90
21744;DHT22;11034;48.556;9.342;2023-10-31T18:13:45;9.20;99.90
21744;DHT22;11034;48.556;9.342;2023-10-31T18:16:20;9.30;99.90
21744;DHT22;11034;48.556;9.342;2023-10-31T18:19:00;9.30;99.90
21744;DHT22;11034;48.556;9.342;2023-10-31T18:21:40;9.40;99.90
21744;DHT22;11034;48.556;9.342;2023-10-31T18:24:15;9.40;99.90
21744;DHT22;11034;48.556;9.342;2023-10-31T18:26:50;9.60;99.90
21744;DHT22;11034;48.556;9.342;2023-10-31T18:29:27;9.60;99.90
21744;DHT22;11034;48.556;9.342;2023-10-31T18:32:00;9.70;99.90
21744;DHT22;11034;48.556;9.342;2023-10-31T18:34:30;9.80;99.90
21744;DHT22;11034;48.556;9.342;2023-10-31T18:37:10;9.90;99.90
21744;DHT22;11034;48.556;9.342;2023-10-31T18:39:42;9.90;99.90
21744;DHT22;11034;48.556;9.342;2023-10-31T18:42:20;9.90;99.90
21744;DHT22;11034;48.556;9.342;2023-10-31T18:44:53;9.90;99.90
21744;DHT22;11034;48.556;9.342;2023-10-31T18:47:28;9.90;99.90
21744;DHT22;11034;48.556;9.342;2023-10-31T18:50:02;9.90;99.90
21744;DHT22;11034;48.556;9.342;2023-10-31T18:52:37;9.90;99.90
21744;DHT22;11034;48.556;9.342;2023-10-31T18:55:11;9.90;99.90
21744;DHT22;11034;48.556;9.342;2023-10-31T18:57:50;9.90;99.90
21744;DHT22;11034;48.556;9.342;2023-10-31T19:03:49;9.90;99.90
21744;DHT22;11034;48.556;9.342;2023-10-31T19:06:31;9.90;99.90
21744;DHT22;11034;48.556;9.342;2023-10-31T19:09:39;9.90;99.90
21744;DHT22;11034;48.556;9.342;2023-10-31T19:12:42;9.80;99.90
21744;DHT22;11034;48.556;9.342;2023-10-31T19:18:36;9.80;99.90
21744;DHT22;11034;48.556;9.342;2023-10-31T19:24:57;9.80;99.90
21744;DHT22;11034;48.556;9.342;2023-10-31T19:27:49;9.80;99.90
21744;DHT22;11034;48.556;9.342;2023-10-31T19:30:57;9.80;99.90
21744;DHT22;11034;48.556;9.342;2023-10-31T19:34:08;9.80;99.90
21744;DHT22;11034;48.556;9.342;2023-10-31T19:36:52;9.80;99.90
21744;DHT22;11034;48.556;9.342;2023-10-31T19:39:23;9.90;99.90
21744;DHT22;11034;48.556;9.342;2023-10-31T19:41:54;9.90;99.90
21744;DHT22;11034;48.556;9.342;2023-10-31T19:44:27;9.90;99.90
21744;DHT22;11034;48.556;9.342;2023-10-31T19:46:57;9.90;99.90
21744;DHT22;11034;48.556;9.342;2023-10-31T19:49:26;9.90;99.90
21744;DHT22;11034;48.556;9.342;2023-10-31T19:51:55;9.90;99.90
21744;DHT22;11034;48.556;9.342;2023-10-31T19:54:25;10.00;99.90
21744;DHT22;11034;48.556;9.342;2023-10-31T19:56:56;10.00;99.90
21744;DHT22;11034;48.556;9.342;2023-10-31T19:59:27;10.10;99.90
21744;DHT22;11034;48.556;9.342;2023-10-31T20:01:57;10.10;99.90
21744;DHT22;11034;48.556;9.342;2023-10-31T20:04:29;10.10;99.90
21744;DHT22;11034;48.556;9.342;2023-10-31T20:06:58;10.10;99.90
21744;DHT22;11034;48.556;9.342;2023-10-31T20:09:27;10.10;99.90
21744;DHT22;11034;48.556;9.342;2023-10-31T20:11:56;10.00;99.90
21744;DHT22;11034;48.556;9.342;2023-10-31T20:14:24;10.00;99.90
21744;DHT22;11034;48.556;9.342;2023-10-31T20:16:58;10.00;99.90
21744;DHT22;11034;48.556;9.342;2023-10-31T20:19:29;10.00;99.90
21744;DHT22;11034;48.556;9.342;2023-10-31T20:22:01;10.00;99.90
21744;DHT22;11034;48.556;9.342;2023-10-31T20:24:31;10.00;99.90
21744;DHT22;11034;48.556;9.342;2023-10-31T20:26:59;9.90;99.90
21744;DHT22;11034;48.556;9.342;2023-10-31T20:29:34;9.90;99.90
21744;DHT22;11034;48.556;9.342;2023-10-31T20:32:07;9.90;99.90
21744;DHT22;11034;48.556;9.342;2023-10-31T20:34:35;9.80;99.90
21744;DHT22;11034;48.556;9.342;2023-10-31T20:37:04;9.80;99.90
21744;DHT22;11034;48.556;9.342;2023-10-31T20:39:36;9.70;99.90
21744;DHT22;11034;48.556;9.342;2023-10-31T20:42:07;9.70;99.90
21744;DHT22;11034;48.556;9.342;2023-10-31T20:44:36;9.60;99.90
21744;DHT22;11034;48.556;9.342;2023-10-31T20:47:07;9.60;99.90
21744;DHT22;11034;48.556;9.342;2023-10-31T20:49:36;9.60;99.90
21744;DHT22;11034;48.556;9.342;2023-10-31T20:52:07;9.60;99.90
21744;DHT22;11034;48.556;9.342;2023-10-31T20:54:36;9.50;99.90
21744;DHT22;11034;48.556;9.342;2023-10-31T20:57:07;9.50;99.90
21744;DHT22;11034;48.556;9.342;2023-10-31T20:59:37;9.50;99.90
21744;DHT22;11034;48.556;9.342;2023-10-31T21:02:08;9.50;99.90
21744;DHT22;11034;48.556;9.342;2023-10-31T21:04:41;9.60;99.90
21744;DHT22;11034;48.556;9.342;2023-10-31T21:07:11;9.50;99.90
21744;DHT22;11034;48.556;9.342;2023-10-31T21:09:43;9.60;99.90
21744;DHT22;11034;48.556;9.342;2023-10-31T21:12:17;9.50;99.90
21744;DHT22;11034;48.556;9.342;2023-10-31T21:14:45;9.60;99.90
21744;DHT22;11034;48.556;9.342;2023-10-31T21:17:17;9.50;99.90
21744;DHT22;11034;48.556;9.342;2023-10-31T21:19:47;9.50;99.90
21744;DHT22;11034;48.556;9.342;2023-10-31T21:22:17;9.50;99.90
21744;DHT22;11034;48.556;9.342;2023-10-31T21:24:48;9.60;99.90
21744;DHT22;11034;48.556;9.342;2023-10-31T21:27:17;9.50;99.90
21744;DHT22;11034;48.556;9.342;2023-10-31T21:29:49;9.50;99.90
21744;DHT22;11034;48.556;9.342;2023-10-31T21:32:20;9.50;99.90
21744;DHT22;11034;48.556;9.342;2023-10-31T21:34:48;9.50;99.90
21744;DHT22;11034;48.556;9.342;2023-10-31T21:37:17;9.60;99.90
21744;DHT22;11034;48.556;9.342;2023-10-31T21:39:48;9.60;99.90
21744;DHT22;11034;48.556;9.342;2023-10-31T21:42:21;9.60;99.90
21744;DHT22;11034;48.556;9.342;2023-10-31T21:44:50;9.50;99.90
21744;DHT22;11034;48.556;9.342;2023-10-31T21:47:20;9.50;99.90
21744;DHT22;11034;48.556;9.342;2023-10-31T21:49:52;9.50;99.90
21744;DHT22;11034;48.556;9.342;2023-10-31T21:52:24;9.40;99.90
21744;DHT22;11034;48.556;9.342;2023-10-31T21:54:55;9.50;99.90
21744;DHT22;11034;48.556;9.342;2023-10-31T21:57:25;9.40;99.90
21744;DHT22;11034;48.556;9.342;2023-10-31T22:00:00;9.40;99.90
21744;DHT22;11034;48.556;9.342;2023-10-31T22:02:31;9.40;99.90
21744;DHT22;11034;48.556;9.342;2023-10-31T22:05:00;9.40;99.90
21744;DHT22;11034;48.556;9.342;2023-10-31T22:07:45;9.40;99.90
21744;DHT22;11034;48.556;9.342;2023-10-31T22:10:17;9.30;99.90
21744;DHT22;11034;48.556;9.342;2023-10-31T22:12:54;9.30;99.90
21744;DHT22;11034;48.556;9.342;2023-10-31T22:15:26;9.20;99.90
21744;DHT22;11034;48.556;9.342;2023-10-31T22:18:02;9.00;99.90
21744;DHT22;11034;48.556;9.342;2023-10-31T22:20:34;8.80;99.90
21744;DHT22;11034;48.556;9.342;2023-10-31T22:23:02;8.90;99.90
21744;DHT22;11034;48.556;9.342;2023-10-31T22:25:34;9.00;99.90
21744;DHT22;11034;48.556;9.342;2023-10-31T22:28:04;9.00;99.90
21744;DHT22;11034;48.556;9.342;2023-10-31T22:30:33;8.90;99.90
21744;DHT22;11034;48.556;9.342;2023-10-31T22:33:05;8.80;99.90
21744;DHT22;11034;48.556;9.342;2023-10-31T22:35:34;8.80;99.90
21744;DHT22;11034;48.556;9.342;2023-10-31T22:38:03;8.70;99.90
21744;DHT22;11034;48.556;9.342;2023-10-31T22:40:32;8.60;99.90
21744;DHT22;11034;48.556;9.342;2023-10-31T22:43:01;8.70;99.90